Time;durP1;ratioP1;P1;durP2;ratioP2;P2;SDS_P1;SDS_P2;PMS_P1;PMS_P2;Temp;Humidity;BMP_temperature;BMP_pressure;BME280_temperature;BME280_humidity;BME280_pressure;Samples;Min_cycle;Max_cycle;Signal;HPM_P1;HPM_P2
2022/08/01 00:01:15;;;;;;;3.47;2.62;;;;;;;15.92;100.00;98024.28;1755037;80;46418;-87
2022/08/01 00:03:41;;;;;;;3.52;2.65;;;;;;;15.88;100.00;98014.98;1742092;79;28098;-87
2022/08/01 00:06:08;;;;;;;4.40;2.33;;;;;;;15.90;100.00;98007.27;1741243;80;42759;-87
2022/08/01 00:08:34;;;;;;;4.62;2.80;;;;;;;15.97;100.00;98006.66;1748421;79;28027;-87
2022/08/01 00:11:00;;;;;;;2.72;2.52;;;;;;;15.99;100.00;98008.64;1756751;80;28084;-87
2022/08/01 00:13:26;;;;;;;5.45;2.72;;;;;;;16.00;100.00;98009.82;1774102;80;28302;-87
2022/08/01 00:15:54;;;;;;;3.15;2.70;;;;;;;16.05;100.00;98010.68;1760782;79;28077;-86
2022/08/01 00:18:23;;;;;;;3.00;2.70;;;;;;;16.07;100.00;98013.52;1753434;79;28119;-87
2022/08/01 00:20:49;;;;;;;4.03;3.20;;;;;;;15.96;100.00;98010.28;1750649;79;28195;-87
2022/08/01 00:23:15;;;;;;;3.40;2.72;;;;;;;15.90;100.00;98013.86;1741545;80;45837;-89
2022/08/01 00:25:45;;;;;;;3.27;2.98;;;;;;;15.92;100.00;98007.13;1752752;80;28395;-89
2022/08/01 00:28:13;;;;;;;5.33;2.95;;;;;;;15.81;100.00;98008.66;1752695;79;28091;-88
2022/08/01 00:30:39;;;;;;;7.20;2.55;;;;;;;15.73;100.00;98013.36;1758472;79;28128;-88
2022/08/01 00:33:08;;;;;;;4.12;2.35;;;;;;;15.73;100.00;98015.16;1754390;80;28170;-87
2022/08/01 00:35:40;;;;;;;2.42;1.90;;;;;;;15.63;100.00;98015.23;1741370;80;28237;-88
2022/08/01 00:38:06;;;;;;;2.33;1.95;;;;;;;15.48;100.00;98010.94;1741577;80;28117;-88
2022/08/01 00:40:32;;;;;;;2.22;2.08;;;;;;;15.32;100.00;98010.75;1770859;78;28070;-88
2022/08/01 00:42:58;;;;;;;2.02;1.92;;;;;;;15.18;100.00;98011.22;1745536;79;28014;-88
2022/08/01 00:45:24;;;;;;;2.12;1.90;;;;;;;15.14;100.00;98010.34;1751921;79;42425;-88
2022/08/01 00:47:53;;;;;;;4.08;2.37;;;;;;;15.25;100.00;98009.67;1723591;79;28113;-88
2022/08/01 00:50:19;;;;;;;2.30;2.10;;;;;;;15.35;100.00;98013.08;1765075;79;28172;-87
2022/08/01 00:52:54;;;;;;;2.90;2.30;;;;;;;15.41;100.00;98007.70;1756578;79;28177;-87
2022/08/01 00:55:21;;;;;;;3.05;2.75;;;;;;;15.53;100.00;98005.73;1729374;80;28129;-87
2022/08/01 00:57:49;;;;;;;5.20;2.65;;;;;;;15.63;100.00;98007.81;1732823;79;28116;-87
2022/08/01 01:00:15;;;;;;;4.50;3.17;;;;;;;15.70;100.00;98007.56;1771992;79;28070;-87
2022/08/01 01:02:43;;;;;;;4.65;3.20;;;;;;;15.77;100.00;98011.23;1754163;79;28063;-87
2022/08/01 01:05:09;;;;;;;5.08;3.20;;;;;;;15.81;100.00;98011.30;1756093;79;28106;-88
2022/08/01 01:07:42;;;;;;;4.17;3.30;;;;;;;15.80;100.00;98005.19;1743457;80;28140;-87
2022/08/01 01:10:21;;;;;;;4.37;3.30;;;;;;;15.76;100.00;98007.80;1744039;80;28014;-87
2022/08/01 01:12:57;;;;;;;7.00;3.20;;;;;;;15.71;100.00;98013.19;1746579;80;28045;-88
2022/08/01 01:15:36;;;;;;;6.62;3.95;;;;;;;15.64;100.00;98008.16;1747214;80;28161;-87
2022/08/01 01:18:05;;;;;;;4.28;3.52;;;;;;;15.59;100.00;98000.69;1739550;79;28132;-86
2022/08/01 01:20:35;;;;;;;3.40;2.98;;;;;;;15.56;100.00;97993.55;1764410;80;28249;-85
2022/08/01 01:23:31;;;;;;;5.92;3.25;;;;;;;15.54;100.00;97994.20;1751730;79;28101;-88
2022/08/01 01:26:00;;;;;;;4.60;3.30;;;;;;;15.54;100.00;97997.67;1758965;79;28167;-88
2022/08/01 01:28:50;;;;;;;3.60;3.30;;;;;;;15.55;100.00;97991.39;1752279;79;28093;-88
2022/08/01 01:31:20;;;;;;;3.67;3.12;;;;;;;15.53;100.00;97992.54;1727289;80;28068;-89
2022/08/01 01:33:48;;;;;;;3.40;3.10;;;;;;;15.50;100.00;97987.02;1750435;80;28136;-87
2022/08/01 01:36:18;;;;;;;4.83;2.87;;;;;;;15.44;100.00;97979.70;1740059;79;28075;-88
2022/08/01 01:38:47;;;;;;;4.78;3.70;;;;;;;15.35;100.00;97988.03;1747794;79;28132;-88
2022/08/01 01:41:16;;;;;;;5.25;2.50;;;;;;;15.33;100.00;97986.02;1748256;80;28086;-89
2022/08/01 01:43:44;;;;;;;2.50;2.30;;;;;;;15.28;100.00;97988.75;1747329;80;28092;-85
2022/08/01 01:46:12;;;;;;;3.15;2.80;;;;;;;15.33;100.00;97986.50;1765922;80;28041;-85
2022/08/01 01:48:39;;;;;;;3.62;3.22;;;;;;;15.37;100.00;97986.57;1736022;79;28104;-85
2022/08/01 01:51:06;;;;;;;5.10;2.80;;;;;;;15.39;100.00;97985.43;1729041;80;28143;-86
2022/08/01 01:53:35;;;;;;;4.30;3.10;;;;;;;15.34;100.00;97990.32;1720790;80;28205;-89
2022/08/01 01:56:03;;;;;;;3.77;3.08;;;;;;;15.37;100.00;97992.67;1741180;80;28133;-88
2022/08/01 01:58:32;;;;;;;3.60;3.05;;;;;;;15.38;100.00;97983.77;1766098;79;28131;-88
2022/08/01 02:01:01;;;;;;;11.10;3.40;;;;;;;15.40;100.00;97996.81;1735499;79;28204;-87
2022/08/01 02:03:29;;;;;;;3.00;2.80;;;;;;;15.37;100.00;97987.89;1737485;80;28115;-87
2022/08/01 02:05:56;;;;;;;2.80;2.60;;;;;;;15.22;100.00;97975.67;1750717;80;28133;-87
2022/08/01 02:08:29;;;;;;;2.80;2.60;;;;;;;15.23;100.00;97985.73;1739817;79;28246;-87
2022/08/01 02:14:00;;;;;;;3.87;2.25;;;;;;;15.19;100.00;97986.52;1760847;80;28150;-88
2022/08/01 02:16:35;;;;;;;2.42;2.05;;;;;;;15.24;100.00;97986.08;1757183;79;28217;-88
2022/08/01 02:19:02;;;;;;;2.98;2.60;;;;;;;15.25;100.00;97979.34;1743204;80;28396;-88
2022/08/01 02:21:31;;;;;;;4.92;3.08;;;;;;;15.24;100.00;97982.95;1751202;80;28119;-87
2022/08/01 02:24:01;;;;;;;2.80;2.20;;;;;;;15.18;100.00;97984.86;1730208;80;28101;-87
2022/08/01 02:26:31;;;;;;;2.70;2.45;;;;;;;15.10;100.00;97982.14;1741169;79;28226;-87
2022/08/01 02:29:03;;;;;;;2.72;2.52;;;;;;;15.04;100.00;97990.63;1771473;79;28203;-87
2022/08/01 02:31:33;;;;;;;2.92;2.62;;;;;;;14.98;100.00;97986.77;1756013;79;28065;-87
2022/08/01 02:34:03;;;;;;;2.65;2.45;;;;;;;14.92;100.00;97989.15;1747033;80;27997;-88
2022/08/01 02:36:32;;;;;;;3.15;2.30;;;;;;;14.88;100.00;97988.63;1760357;79;28109;-87
2022/08/01 02:39:01;;;;;;;4.40;2.45;;;;;;;14.83;100.00;97986.91;1748159;79;28054;-87
2022/08/01 02:41:29;;;;;;;3.40;2.47;;;;;;;14.79;100.00;97988.15;1769989;79;28111;-88
2022/08/01 02:43:55;;;;;;;3.35;2.98;;;;;;;14.74;100.00;97985.60;1735625;80;28088;-88
2022/08/01 02:46:31;;;;;;;4.72;4.08;;;;;;;14.70;100.00;97981.60;1762272;79;28110;-88
2022/08/01 02:49:01;;;;;;;3.02;2.72;;;;;;;14.70;100.00;97984.23;1760821;79;28115;-91
2022/08/01 02:51:30;;;;;;;3.25;2.42;;;;;;;14.70;100.00;97978.97;1765375;79;28108;-90
2022/08/01 02:53:59;;;;;;;3.10;2.80;;;;;;;14.72;100.00;97978.35;1734358;80;28139;-90
2022/08/01 02:56:34;;;;;;;4.37;2.67;;;;;;;14.73;100.00;97984.77;1704890;81;28117;-87
2022/08/01 02:58:54;;;;;;;4.58;3.12;;;;;;;14.74;100.00;97981.66;1680199;82;28090;-87
2022/08/01 03:01:21;;;;;;;4.37;2.70;;;;;;;14.74;100.00;97979.02;1734281;80;28152;-87
2022/08/01 03:03:48;;;;;;;3.77;2.72;;;;;;;14.75;100.00;97984.15;1714860;81;28113;-87
2022/08/01 03:06:17;;;;;;;8.18;3.27;;;;;;;14.75;100.00;97982.83;1754196;80;28259;-87
2022/08/01 03:08:44;;;;;;;3.02;2.47;;;;;;;14.75;100.00;97984.63;1767069;79;28022;-87
2022/08/01 03:11:12;;;;;;;2.85;2.42;;;;;;;14.75;100.00;97984.63;1723211;80;28109;-87
2022/08/01 03:13:42;;;;;;;3.08;2.33;;;;;;;14.65;100.00;97981.55;1755368;79;28116;-87
2022/08/01 03:16:16;;;;;;;2.85;2.42;;;;;;;14.67;100.00;97978.79;1740208;78;28051;-87
2022/08/01 03:18:52;;;;;;;2.98;2.60;;;;;;;14.70;100.00;97978.48;1744363;79;28243;-87
2022/08/01 03:21:21;;;;;;;3.00;2.70;;;;;;;14.68;100.00;97977.79;1711184;81;28115;-87
2022/08/01 03:23:50;;;;;;;2.90;2.40;;;;;;;14.69;100.00;97979.94;1744551;79;28085;-87
2022/08/01 03:26:17;;;;;;;3.50;2.42;;;;;;;14.69;100.00;97981.25;1758071;80;28161;-86
2022/08/01 03:28:46;;;;;;;4.00;2.30;;;;;;;14.65;100.00;97980.23;1759978;79;28111;-87
2022/08/01 03:31:14;;;;;;;3.08;2.30;;;;;;;14.62;100.00;97984.45;1740416;79;28052;-88
2022/08/01 03:33:40;;;;;;;2.02;1.85;;;;;;;14.59;100.00;97982.13;1745517;80;28108;-87
2022/08/01 03:36:10;;;;;;;2.27;2.08;;;;;;;14.55;100.00;97982.08;1744347;79;28066;-87
2022/08/01 03:38:39;;;;;;;3.22;2.20;;;;;;;14.53;100.00;97986.64;1712198;82;28115;-87
2022/08/01 03:41:20;;;;;;;2.40;2.20;;;;;;;14.53;100.00;97979.23;1722216;81;28037;-88
2022/08/01 03:43:58;;;;;;;2.83;2.02;;;;;;;14.54;100.00;97973.83;1716953;81;28212;-87
2022/08/01 03:46:31;;;;;;;3.90;2.20;;;;;;;14.53;100.00;97977.42;1718467;82;28157;-87
2022/08/01 03:49:00;;;;;;;2.15;2.05;;;;;;;14.51;100.00;97975.41;1724252;80;28096;-87
2022/08/01 03:51:29;;;;;;;4.30;2.17;;;;;;;14.49;100.00;97980.01;1755526;80;28137;-87
2022/08/01 03:53:58;;;;;;;3.37;2.10;;;;;;;14.48;100.00;97978.34;1750308;80;28121;-85
2022/08/01 03:56:27;;;;;;;2.40;2.20;;;;;;;14.45;100.00;97981.28;1743571;80;28169;-85
2022/08/01 03:58:59;;;;;;;3.52;2.30;;;;;;;14.44;100.00;97979.61;1756936;78;28178;-87
2022/08/01 04:01:26;;;;;;;2.95;2.02;;;;;;;14.44;100.00;97983.56;1761609;79;28185;-87
2022/08/01 04:03:53;;;;;;;3.47;2.42;;;;;;;14.43;100.00;97981.06;1773558;79;28169;-87
2022/08/01 04:06:20;;;;;;;2.05;1.92;;;;;;;14.45;100.00;97984.39;1763910;79;28085;-87
2022/08/01 04:09:04;;;;;;;2.05;1.90;;;;;;;14.49;100.00;97985.76;1743132;79;28189;-84
2022/08/01 04:11:17;;;;;;;2.58;2.37;;;;;;;14.55;100.00;97983.39;1726292;80;28111;-88
2022/08/01 04:13:43;;;;;;;2.33;2.12;;;;;;;14.57;100.00;97985.86;1761342;80;27998;-88
2022/08/01 04:16:09;;;;;;;2.33;2.12;;;;;;;14.63;100.00;97991.39;1742656;80;28015;-88
2022/08/01 04:18:36;;;;;;;3.00;1.98;;;;;;;14.71;100.00;97994.64;1759668;79;47351;-88
2022/08/01 04:21:02;;;;;;;2.58;1.62;;;;;;;14.83;100.00;97992.66;1759224;79;28071;-88
2022/08/01 04:23:31;;;;;;;3.27;2.05;;;;;;;14.95;100.00;97994.12;1737913;80;28107;-87
2022/08/01 04:25:59;;;;;;;2.62;2.10;;;;;;;15.11;100.00;97995.64;1736364;80;28161;-85
2022/08/01 04:28:25;;;;;;;2.22;1.80;;;;;;;15.24;100.00;97998.77;1739578;79;28178;-84
2022/08/01 04:30:55;;;;;;;2.47;1.87;;;;;;;15.35;100.00;97995.94;1744756;78;28065;-85
2022/08/01 04:33:28;;;;;;;3.30;2.08;;;;;;;15.38;100.00;97993.52;1723913;80;28220;-85
2022/08/01 04:35:52;;;;;;;2.30;2.10;;;;;;;15.45;100.00;97993.23;1724832;80;28113;-85
2022/08/01 04:38:21;;;;;;;2.35;2.00;;;;;;;15.45;100.00;97992.75;1745805;80;28065;-85
2022/08/01 04:40:50;;;;;;;1.82;1.72;;;;;;;15.46;100.00;97996.22;1760941;80;28063;-85
2022/08/01 04:43:17;;;;;;;4.58;2.05;;;;;;;15.47;100.00;97993.44;1720638;82;28032;-85
2022/08/01 04:45:44;;;;;;;2.42;1.90;;;;;;;15.50;100.00;97994.45;1747993;79;28091;-86
2022/08/01 04:48:12;;;;;;;2.77;1.80;;;;;;;15.51;100.00;98001.88;1714874;82;28129;-87
2022/08/01 04:50:41;;;;;;;3.55;1.70;;;;;;;15.60;100.00;98003.64;1699759;82;28104;-89
2022/08/01 04:53:16;;;;;;;2.30;2.10;;;;;;;15.56;100.00;97996.19;1760380;80;28122;-88
2022/08/01 04:55:45;;;;;;;1.50;1.40;;;;;;;15.65;100.00;98005.86;1749286;79;28074;-87
2022/08/01 04:58:12;;;;;;;5.03;2.17;;;;;;;15.76;100.00;98006.97;1744939;79;28016;-85
2022/08/01 05:00:38;;;;;;;1.80;1.65;;;;;;;15.79;100.00;98002.70;1759022;79;28069;-85
2022/08/01 05:03:05;;;;;;;3.45;1.85;;;;;;;15.81;100.00;98002.06;1702591;82;28389;-85
2022/08/01 05:05:31;;;;;;;3.50;1.75;;;;;;;15.82;100.00;97996.62;1712855;82;28098;-86
2022/08/01 05:07:57;;;;;;;1.92;1.75;;;;;;;15.83;100.00;97993.49;1752970;80;28149;-85
2022/08/01 05:10:25;;;;;;;3.40;1.75;;;;;;;15.83;100.00;98006.69;1701690;82;46260;-85
2022/08/01 05:12:52;;;;;;;2.72;1.70;;;;;;;15.88;100.00;97996.02;1718446;80;27997;-85
2022/08/01 05:15:18;;;;;;;4.15;1.42;;;;;;;15.96;100.00;97995.77;1766859;79;28152;-86
2022/08/01 05:17:44;;;;;;;1.55;1.45;;;;;;;15.97;100.00;97996.94;1775589;80;28092;-90
2022/08/01 05:20:12;;;;;;;1.50;1.40;;;;;;;16.06;100.00;97997.34;1736635;80;28033;-90
2022/08/01 05:22:39;;;;;;;1.70;1.47;;;;;;;16.14;100.00;97992.14;1760105;79;28012;-90
2022/08/01 05:25:06;;;;;;;4.20;1.75;;;;;;;16.23;100.00;97993.02;1755995;80;28059;-90
2022/08/01 05:27:37;;;;;;;5.03;1.62;;;;;;;16.32;100.00;97999.52;1748765;79;28060;-87
2022/08/01 05:30:00;;;;;;;1.57;1.42;;;;;;;16.40;100.00;97997.45;1744934;80;28024;-87
2022/08/01 05:32:29;;;;;;;1.55;1.40;;;;;;;16.47;100.00;97998.98;1738003;80;28112;-89
2022/08/01 05:34:54;;;;;;;2.35;1.50;;;;;;;16.54;100.00;98003.48;1759028;79;28050;-89
2022/08/01 05:37:20;;;;;;;1.45;1.30;;;;;;;16.55;100.00;97997.22;1760624;80;28002;-89
2022/08/01 05:39:46;;;;;;;3.92;1.72;;;;;;;16.64;100.00;97994.16;1739226;79;28095;-90
2022/08/01 05:42:12;;;;;;;1.50;1.40;;;;;;;16.70;100.00;97998.81;1744828;80;47083;-89
2022/08/01 05:44:38;;;;;;;1.52;1.37;;;;;;;16.77;100.00;98000.34;1730913;80;44018;-89
2022/08/01 05:47:04;;;;;;;2.67;1.45;;;;;;;16.82;100.00;98003.34;1752875;80;28094;-89
2022/08/01 05:49:30;;;;;;;1.85;1.37;;;;;;;16.83;100.00;98003.20;1735886;80;28177;-90
2022/08/01 05:51:57;;;;;;;1.42;1.27;;;;;;;16.88;100.00;98008.02;1743979;80;28153;-88
2022/08/01 05:54:23;;;;;;;1.65;1.30;;;;;;;16.88;100.00;98007.52;1740972;80;28090;-90
2022/08/01 05:57:04;;;;;;;3.12;1.02;;;;;;;16.89;100.00;98011.00;1744405;80;28104;-91
2022/08/01 05:59:32;;;;;;;2.30;1.40;;;;;;;16.95;100.00;98014.34;1737438;80;28105;-89
2022/08/01 06:01:58;;;;;;;1.77;1.42;;;;;;;17.00;100.00;98016.02;1756527;80;27983;-86
2022/08/01 06:04:28;;;;;;;1.62;1.30;;;;;;;17.06;100.00;98020.19;1728750;80;49129;-86
2022/08/01 06:06:55;;;;;;;1.30;1.20;;;;;;;17.12;100.00;98018.23;1759020;79;28028;-90
2022/08/01 06:09:23;;;;;;;1.52;1.42;;;;;;;17.17;100.00;98020.40;1754497;80;28201;-87
2022/08/01 06:11:52;;;;;;;2.00;1.25;;;;;;;17.25;100.00;98022.23;1740849;80;28112;-86
2022/08/01 06:14:27;;;;;;;1.57;1.20;;;;;;;17.32;100.00;98024.58;1774014;79;28023;-86
2022/08/01 06:16:55;;;;;;;1.82;1.40;;;;;;;17.41;100.00;98022.30;1735763;79;28114;-88
2022/08/01 06:19:21;;;;;;;2.55;1.40;;;;;;;17.47;100.00;98027.78;1748768;80;28115;-88
2022/08/01 06:21:47;;;;;;;1.75;1.30;;;;;;;17.58;100.00;98018.23;1744234;80;28071;-88
2022/08/01 06:24:13;;;;;;;2.75;1.50;;;;;;;17.74;100.00;98018.79;1770337;79;28263;-90
2022/08/01 06:26:39;;;;;;;1.32;1.22;;;;;;;17.85;100.00;98013.19;1742409;80;28087;-89
2022/08/01 06:29:06;;;;;;;4.30;1.52;;;;;;;18.05;100.00;98019.02;1746037;80;28113;-86
2022/08/01 06:31:32;;;;;;;1.50;1.40;;;;;;;18.20;100.00;98018.70;1750362;80;42052;-87
2022/08/01 06:33:58;;;;;;;3.50;1.50;;;;;;;18.25;100.00;98015.55;1757375;80;28048;-86
2022/08/01 06:36:26;;;;;;;2.12;1.30;;;;;;;18.43;100.00;98017.55;1775557;79;28085;-86
2022/08/01 06:38:55;;;;;;;2.15;1.30;;;;;;;18.49;100.00;98016.88;1749184;80;28079;-86
2022/08/01 06:41:24;;;;;;;1.45;1.25;;;;;;;18.57;100.00;98018.22;1747816;79;28133;-87
2022/08/01 06:43:50;;;;;;;3.27;1.60;;;;;;;18.67;100.00;98012.23;1756580;79;28106;-87
2022/08/01 06:46:16;;;;;;;2.10;1.62;;;;;;;18.82;100.00;98020.84;1750354;79;28019;-87
2022/08/01 06:48:42;;;;;;;3.02;1.42;;;;;;;19.03;100.00;98025.09;1755423;80;28071;-87
2022/08/01 06:51:09;;;;;;;2.15;1.40;;;;;;;19.12;100.00;98026.22;1754347;80;28062;-87
2022/08/01 06:53:36;;;;;;;3.55;1.90;;;;;;;19.21;100.00;98027.83;1755708;79;28062;-87
2022/08/01 06:56:03;;;;;;;2.95;1.40;;;;;;;19.37;100.00;98027.44;1749986;80;28197;-86
2022/08/01 06:58:30;;;;;;;1.70;1.30;;;;;;;19.43;100.00;98025.42;1715668;80;28170;-87
2022/08/01 07:00:56;;;;;;;3.05;1.40;;;;;;;19.49;100.00;98026.92;1759427;79;28014;-87
2022/08/01 07:03:22;;;;;;;4.58;1.57;;;;;;;19.58;100.00;98021.89;1763695;79;28183;-86
2022/08/01 07:05:48;;;;;;;2.75;1.30;;;;;;;19.71;100.00;98025.81;1751786;79;42527;-86
2022/08/01 07:08:14;;;;;;;2.00;1.50;;;;;;;19.81;100.00;98020.61;1765698;79;28078;-87
2022/08/01 07:10:40;;;;;;;2.52;1.50;;;;;;;19.90;100.00;98028.88;1763371;79;28104;-85
2022/08/01 07:13:06;;;;;;;2.33;1.40;;;;;;;19.99;100.00;98023.83;1762427;80;28115;-85
2022/08/01 07:15:32;;;;;;;1.72;1.50;;;;;;;20.09;100.00;98018.77;1736876;80;28117;-85
2022/08/01 07:18:01;;;;;;;2.75;1.37;;;;;;;20.16;100.00;98015.73;1760733;79;28133;-86
2022/08/01 07:20:28;;;;;;;2.08;1.60;;;;;;;20.25;100.00;98014.16;1713679;80;28207;-86
2022/08/01 07:22:54;;;;;;;3.77;1.60;;;;;;;20.38;100.00;98013.10;1751759;79;28179;-85
2022/08/01 07:25:20;;;;;;;4.50;1.75;;;;;;;20.43;100.00;98013.89;1760277;80;42393;-86
2022/08/01 07:27:46;;;;;;;4.25;1.60;;;;;;;20.52;100.00;98016.78;1751120;80;28094;-87
2022/08/01 07:30:13;;;;;;;3.27;1.90;;;;;;;20.70;100.00;98009.81;1748481;78;28223;-87
2022/08/01 07:32:39;;;;;;;2.02;1.40;;;;;;;20.83;100.00;98010.86;1759290;79;28140;-86
2022/08/01 07:35:06;;;;;;;2.85;1.47;;;;;;;20.95;100.00;98011.20;1756649;80;28054;-85
2022/08/01 07:37:32;;;;;;;2.95;1.52;;;;;;;21.06;100.00;98017.41;1750966;79;28099;-85
2022/08/01 07:39:59;;;;;;;3.22;1.65;;;;;;;21.15;100.00;98009.70;1748106;79;28158;-85
2022/08/01 07:42:25;;;;;;;2.37;1.65;;;;;;;21.27;100.00;98015.39;1762677;79;28055;-88
2022/08/01 07:44:51;;;;;;;2.00;1.50;;;;;;;21.29;100.00;98014.68;1752088;80;28030;-89
2022/08/01 07:47:26;;;;;;;1.65;1.20;;;;;;;21.39;100.00;98015.72;1758138;79;28104;-87
2022/08/01 07:49:55;;;;;;;3.08;1.60;;;;;;;21.46;100.00;98012.64;1746942;80;28591;-85
2022/08/01 07:52:21;;;;;;;3.85;1.65;;;;;;;21.54;100.00;98009.39;1733563;79;28155;-85
2022/08/01 07:54:47;;;;;;;2.10;1.42;;;;;;;21.59;100.00;98013.64;1754903;80;28122;-86
2022/08/01 07:57:13;;;;;;;2.05;1.60;;;;;;;21.61;100.00;98011.60;1736085;80;28170;-86
2022/08/01 07:59:39;;;;;;;4.30;2.02;;;;;;;21.67;100.00;98012.69;1763955;79;28098;-89
2022/08/01 08:02:06;;;;;;;1.98;1.70;;;;;;;21.71;100.00;98009.46;1749942;80;28139;-88
2022/08/01 08:04:32;;;;;;;4.10;1.70;;;;;;;21.78;100.00;98012.20;1747025;79;28089;-88
2022/08/01 08:06:58;;;;;;;2.65;1.70;;;;;;;21.87;100.00;98016.42;1721004;80;28230;-88
2022/08/01 08:09:24;;;;;;;3.10;1.85;;;;;;;22.00;100.00;98013.09;1761967;79;42326;-88
2022/08/01 08:11:50;;;;;;;5.40;1.80;;;;;;;22.08;100.00;98011.14;1719566;81;28082;-88
2022/08/01 08:14:17;;;;;;;2.55;1.90;;;;;;;22.16;100.00;98008.84;1692219;82;28116;-88
2022/08/01 08:16:45;;;;;;;3.75;2.02;;;;;;;22.19;100.00;98011.64;1704180;82;28263;-88
2022/08/01 08:19:13;;;;;;;4.10;1.98;;;;;;;22.22;100.00;98017.91;1689214;83;28111;-89
2022/08/01 08:21:40;;;;;;;4.03;2.10;;;;;;;22.25;100.00;98016.22;1692067;83;28003;-89
2022/08/01 08:24:28;;;;;;;5.58;2.20;;;;;;;22.29;100.00;98013.48;1720925;82;28140;-89
2022/08/01 08:26:53;;;;;;;3.00;2.12;;;;;;;22.33;100.00;98007.56;1705691;82;28082;-89
2022/08/01 08:29:21;;;;;;;4.37;2.20;;;;;;;22.40;100.00;98009.80;1701512;82;28090;-89
2022/08/01 08:31:51;;;;;;;6.70;2.25;;;;;;;22.45;100.00;98006.55;1722206;81;28103;-86
2022/08/01 08:34:17;;;;;;;5.03;2.00;;;;;;;22.54;100.00;98000.05;1743938;79;28063;-86
2022/08/01 08:36:47;;;;;;;4.80;2.20;;;;;;;22.61;100.00;98004.93;1761748;78;28215;-86
2022/08/01 08:39:13;;;;;;;3.45;1.92;;;;;;;22.64;100.00;98007.20;1730199;79;28159;-87
2022/08/01 08:41:39;;;;;;;4.25;2.08;;;;;;;22.71;100.00;98013.92;1753767;78;28133;-86
2022/08/01 08:44:07;;;;;;;3.15;2.20;;;;;;;22.76;100.00;98013.69;1747123;80;28285;-86
2022/08/01 08:46:36;;;;;;;4.08;2.10;;;;;;;22.84;100.00;98015.39;1758779;79;28270;-86
2022/08/01 08:49:03;;;;;;;3.77;2.05;;;;;;;22.93;100.00;98016.88;1750523;80;28200;-87
2022/08/01 08:51:33;;;;;;;2.62;1.80;;;;;;;22.99;100.00;98019.28;1746748;78;28174;-87
2022/08/01 08:54:06;;;;;;;4.85;2.00;;;;;;;23.04;100.00;98024.85;1743307;79;28085;-87
2022/08/01 08:56:34;;;;;;;2.42;1.90;;;;;;;23.13;100.00;98025.83;1747729;79;28177;-86
2022/08/01 08:59:00;;;;;;;2.15;1.80;;;;;;;23.19;100.00;98030.89;1729976;79;28045;-86
2022/08/01 09:01:26;;;;;;;4.33;1.75;;;;;;;23.30;100.00;98032.50;1735141;80;28161;-86
2022/08/01 09:03:54;;;;;;;2.22;1.82;;;;;;;23.39;100.00;98030.51;1710309;80;28122;-86
2022/08/01 09:06:20;;;;;;;2.80;2.10;;;;;;;23.42;100.00;98035.45;1695942;80;28117;-86
2022/08/01 09:08:46;;;;;;;3.30;1.80;;;;;;;23.38;100.00;98032.03;1769976;79;28220;-86
2022/08/01 09:11:12;;;;;;;4.50;2.30;;;;;;;23.33;100.00;98028.63;1752345;79;28166;-87
2022/08/01 09:13:39;;;;;;;4.60;2.47;;;;;;;23.42;100.00;98030.61;1733871;80;28037;-86
2022/08/01 09:16:05;;;;;;;3.00;1.87;;;;;;;23.50;100.00;98028.64;1772940;79;28227;-87
2022/08/01 09:18:40;;;;;;;3.15;2.20;;;;;;;23.57;100.00;98032.15;1730917;79;28254;-86
2022/08/01 09:21:09;;;;;;;2.75;2.10;;;;;;;23.62;100.00;98024.36;1744625;79;28139;-86
2022/08/01 09:23:39;;;;;;;2.85;1.90;;;;;;;23.69;100.00;98037.75;1742553;80;28024;-86
2022/08/01 09:26:06;;;;;;;2.30;2.10;;;;;;;23.70;100.00;98034.06;1764551;79;28684;-86
2022/08/01 09:28:33;;;;;;;4.20;2.50;;;;;;;23.76;100.00;98037.27;1763937;79;28058;-87
2022/08/01 09:31:11;;;;;;;3.15;2.40;;;;;;;23.82;100.00;98041.81;1745888;80;28096;-86
2022/08/01 09:34:03;;;;;;;2.52;2.33;;;;;;;23.86;100.00;98045.73;1754346;79;28156;-86
2022/08/01 09:36:28;;;;;;;3.05;2.75;;;;;;;23.90;100.00;98043.47;1749961;79;27995;-87
2022/08/01 09:38:55;;;;;;;3.02;2.20;;;;;;;23.96;100.00;98044.00;1754674;79;28170;-86
2022/08/01 09:41:32;;;;;;;5.65;2.25;;;;;;;24.01;100.00;98049.56;1715029;81;28360;-86
2022/08/01 09:43:59;;;;;;;3.08;2.30;;;;;;;24.07;100.00;98045.58;1720008;79;28128;-87
2022/08/01 09:46:26;;;;;;;3.10;2.35;;;;;;;24.16;100.00;98047.58;1750476;79;28184;-87
2022/08/01 09:48:58;;;;;;;4.28;2.30;;;;;;;24.18;100.00;98047.70;1745773;79;28160;-87
2022/08/01 09:51:33;;;;;;;2.42;2.00;;;;;;;24.20;100.00;98047.50;1764531;80;28694;-87
2022/08/01 09:54:01;;;;;;;4.83;2.50;;;;;;;24.20;100.00;98052.02;1756215;80;28118;-87
2022/08/01 09:56:30;;;;;;;2.35;2.15;;;;;;;24.21;100.00;98055.84;1752397;80;28085;-87
2022/08/01 09:58:59;;;;;;;4.85;2.20;;;;;;;24.22;100.00;98053.45;1745836;79;28114;-87
2022/08/01 10:01:25;;;;;;;2.45;2.25;;;;;;;24.26;100.00;98053.89;1756766;80;28086;-87
2022/08/01 10:04:05;;;;;;;2.90;2.12;;;;;;;24.28;100.00;98055.83;1747974;79;28081;-88
2022/08/01 10:06:32;;;;;;;3.95;2.30;;;;;;;24.29;100.00;98054.30;1689175;82;28073;-86
2022/08/01 10:08:59;;;;;;;2.52;2.33;;;;;;;24.29;100.00;98053.47;1710709;82;27997;-86
2022/08/01 10:11:26;;;;;;;2.55;2.35;;;;;;;24.24;100.00;98055.42;1707159;83;28115;-86
2022/08/01 10:13:53;;;;;;;3.33;2.45;;;;;;;24.22;100.00;98058.80;1693624;81;28108;-86
2022/08/01 10:16:20;;;;;;;4.92;2.92;;;;;;;24.21;100.00;98059.85;1715325;82;28212;-86
2022/08/01 10:18:47;;;;;;;4.20;2.20;;;;;;;24.18;100.00;98053.05;1727375;81;28209;-86
2022/08/01 10:21:13;;;;;;;5.83;3.08;;;;;;;24.14;100.00;98051.78;1706452;82;28176;-86
2022/08/01 10:23:41;;;;;;;3.30;2.40;;;;;;;24.12;100.00;98058.34;1703316;82;28021;-85
2022/08/01 10:26:10;;;;;;;2.80;2.17;;;;;;;24.12;100.00;98058.34;1766069;80;28271;-86
2022/08/01 10:28:38;;;;;;;3.72;2.62;;;;;;;24.12;100.00;98065.02;1746057;80;28178;-86
2022/08/01 10:31:06;;;;;;;3.55;2.45;;;;;;;24.10;100.00;98060.41;1746265;80;28167;-87
2022/08/01 10:33:36;;;;;;;3.87;2.62;;;;;;;24.11;100.00;98063.41;1738142;80;28480;-87
2022/08/01 10:36:04;;;;;;;4.03;2.77;;;;;;;24.09;100.00;98062.26;1740441;80;28105;-86
2022/08/01 10:38:30;;;;;;;3.00;2.70;;;;;;;24.07;100.00;98056.79;1710160;82;28113;-86
2022/08/01 10:40:59;;;;;;;3.80;2.27;;;;;;;24.01;100.00;98067.77;1754855;79;28133;-86
2022/08/01 10:43:25;;;;;;;4.08;2.77;;;;;;;23.97;100.00;98055.84;1773438;79;28147;-86
2022/08/01 10:45:51;;;;;;;3.83;2.42;;;;;;;24.00;100.00;98055.97;1766812;79;28136;-86
2022/08/01 10:48:31;;;;;;;4.05;2.62;;;;;;;24.04;100.00;98057.20;1745281;80;28098;-86
2022/08/01 10:51:03;;;;;;;3.65;2.65;;;;;;;24.10;100.00;98054.55;1768561;79;27999;-86
2022/08/01 10:53:29;;;;;;;4.55;3.12;;;;;;;24.15;100.00;98053.44;1756247;78;28187;-86
2022/08/01 10:56:00;;;;;;;5.67;3.00;;;;;;;24.27;100.00;98052.87;1744395;80;28179;-86
2022/08/01 10:58:37;;;;;;;6.92;3.42;;;;;;;24.41;100.00;98049.17;1728561;80;28055;-86
2022/08/01 11:01:22;;;;;;;4.22;3.30;;;;;;;24.55;100.00;98042.80;1741080;80;28062;-86
2022/08/01 11:04:07;;;;;;;5.17;3.10;;;;;;;24.64;100.00;98048.27;1755318;80;28089;-86
2022/08/01 11:06:41;;;;;;;5.17;3.15;;;;;;;24.70;100.00;98045.29;1696136;81;28018;-86
2022/08/01 11:09:13;;;;;;;6.30;2.98;;;;;;;24.78;100.00;98045.06;1666909;83;28024;-86
2022/08/01 11:12:06;;;;;;;5.47;2.90;;;;;;;24.84;100.00;98046.92;1727134;80;28077;-86
2022/08/01 11:14:33;;;;;;;5.40;3.77;;;;;;;24.92;100.00;98047.58;1727065;79;28211;-85
2022/08/01 11:17:35;;;;;;;5.35;3.72;;;;;;;24.96;100.00;98050.14;1754371;79;28275;-86
2022/08/01 11:20:08;;;;;;;5.30;3.27;;;;;;;24.96;100.00;98049.31;1750370;80;28161;-86
2022/08/01 11:23:01;;;;;;;5.92;3.98;;;;;;;24.97;100.00;98046.95;1750380;78;28106;-86
2022/08/01 11:25:45;;;;;;;5.67;3.58;;;;;;;25.03;100.00;98049.31;1760409;78;28055;-86
2022/08/01 11:28:18;;;;;;;5.10;3.60;;;;;;;25.04;100.00;98045.61;1694115;82;28065;-86
2022/08/01 11:30:52;;;;;;;3.75;2.85;;;;;;;25.04;100.00;98046.95;1737900;80;28160;-86
2022/08/01 11:33:21;;;;;;;4.20;2.98;;;;;;;25.05;100.00;98043.22;1736460;79;28089;-85
2022/08/01 11:36:17;;;;;;;4.40;3.10;;;;;;;25.14;100.00;98052.19;1765044;79;28077;-86